^^
Grace C. Lehan Memorial Weather Station Historical Data
Daily Summary for March 28, 2021 Units:  Metric    English   Both
Daily Weekly Monthly Yearly
  High: Low: Average:
Temperature: 17.8 °C 8.8 °C 13.9 °C
Dew Point: 10.4 °C 3.8 °C 7 °C
Humidity: 94% 45% 65%
Wind Speed: 8.7km/h 0km/h 1.9km/h
Wind Gust: 24.1km/h - -
Wind- - ESE
Pressure: 1019.5 hPa 1014.4 hPa -
Precipitation: 9.14 mm    
 
 
Tabular Data for March 28, 2021
Time Temperature Dew Point Pressure Wind Wind Speed Wind Gust Humidity Rainfall Rate (Hourly) solar
00:09 15.9 °C 8.3 °C 1016.1 hPa Calm   1.6 km/h 60.5% 0 mm 0 W/m2
00:14 15.8 °C 8.3 °C 1016.1 hPa NNW 0.3 km/h 6.4 km/h 61% 0 mm 0 W/m2
00:19 15.7 °C 8.2 °C 1016.1 hPa NNW 1.1 km/h 8 km/h 61% 0 mm 0 W/m2
00:24 15.7 °C 8.2 °C 1016.5 hPa NW 1 km/h 8 km/h 61% 0 mm 0 W/m2
00:29 15.6 °C 8.1 °C 1016.5 hPa Calm   8 km/h 61% 0 mm 0 W/m2
00:34 15.6 °C 8.2 °C 1016.5 hPa Calm   8 km/h 61.6% 0 mm 0 W/m2
00:39 15.5 °C 8.3 °C 1016.5 hPa Calm     62% 0 mm 0 W/m2
00:44 15.4 °C 8.2 °C 1016.5 hPa NNW 0.2 km/h 3.2 km/h 62% 0 mm 0 W/m2
00:49 15.4 °C 8.3 °C 1016.5 hPa NNW 0.2 km/h 3.2 km/h 62.5% 0 mm 0 W/m2
00:54 15.3 °C 8.3 °C 1016.5 hPa NNW 0.5 km/h 4.8 km/h 63% 0 mm 0 W/m2
00:59 15.2 °C 8.3 °C 1016.5 hPa Calm   4.8 km/h 63% 0 mm 0 W/m2
01:04 15.2 °C 8.2 °C 1016.5 hPa Calm   4.8 km/h 63% 0 mm 0 W/m2
01:09 15.1 °C 8.2 °C 1016.5 hPa NNW 1.4 km/h 8 km/h 63.2% 0 mm 0 W/m2
01:14 15.1 °C 8.2 °C 1016.5 hPa Calm   8 km/h 63.5% 0 mm 0 W/m2
01:19 15.1 °C 8.3 °C 1016.5 hPa NNW 2.7 km/h 11.3 km/h 64% 0 mm 0 W/m2
01:24 15 °C 8.2 °C 1016.5 hPa NNE 1.3 km/h 14.5 km/h 63.6% 0 mm 0 W/m2
01:29 15 °C 8.3 °C 1016.5 hPa North 0.6 km/h 14.5 km/h 64% 0 mm 0 W/m2
01:34 15 °C 8.3 °C 1016.5 hPa North 0.8 km/h 14.5 km/h 64% 0 mm 0 W/m2
01:39 15 °C 8.3 °C 1016.5 hPa NNE 0.5 km/h 11.3 km/h 64% 0 mm 0 W/m2
01:44 15.1 °C 8.3 °C 1016.5 hPa NE 0.8 km/h 11.3 km/h 64% 0 mm 0 W/m2
01:49 15.1 °C 8.2 °C 1016.5 hPa NE 0.6 km/h 11.3 km/h 63.6% 0 mm 0 W/m2
01:54 15.1 °C 8.1 °C 1016.5 hPa North 2.3 km/h 11.3 km/h 62.8% 0 mm 0 W/m2
01:59 15.1 °C 7.9 °C 1016.5 hPa NE 1.1 km/h 11.3 km/h 62.2% 0 mm 0 W/m2
02:04 15.1 °C 7.8 °C 1016.5 hPa NNW 1.6 km/h 11.3 km/h 62% 0 mm 0 W/m2
02:09 15.1 °C 7.8 °C 1016.5 hPa North 0.3 km/h 11.3 km/h 62.1% 0 mm 0 W/m2
02:14 15 °C 7.8 °C 1016.8 hPa NE 0.6 km/h 11.3 km/h 62% 0 mm 0 W/m2
02:19 14.9 °C 7.7 °C 1016.8 hPa NNE 1.4 km/h 16.1 km/h 62% 0 mm 0 W/m2
02:24 14.9 °C 7.5 °C 1016.8 hPa East 1 km/h 16.1 km/h 61.1% 0 mm 0 W/m2
02:29 14.9 °C 7.4 °C 1016.8 hPa ENE 1.9 km/h 16.1 km/h 61% 0 mm 0 W/m2
02:34 14.8 °C 7.4 °C 1016.8 hPa ENE 1.6 km/h 16.1 km/h 61.1% 0 mm 0 W/m2
02:39 14.8 °C 7.3 °C 1016.5 hPa ENE 2.3 km/h 9.7 km/h 60.9% 0 mm 0 W/m2
02:44 14.8 °C 7 °C 1016.5 hPa ENE 2.9 km/h 16.1 km/h 59.6% 0 mm 0 W/m2
02:49 14.7 °C 6.6 °C 1016.8 hPa NE 3.7 km/h 16.1 km/h 58.1% 0 mm 0 W/m2
02:54 14.7 °C 6.5 °C 1016.8 hPa NE 1.9 km/h 17.7 km/h 57.8% 0 mm 0 W/m2
02:59 14.7 °C 5.9 °C 1016.8 hPa ENE 5.1 km/h 17.7 km/h 55.8% 0 mm 0 W/m2
03:04 14.6 °C 5.7 °C 1016.8 hPa NE 6.3 km/h 17.7 km/h 55% 0 mm 0 W/m2
03:09 14.6 °C 5.6 °C 1016.8 hPa NE 4.3 km/h 12.9 km/h 55% 0 mm 0 W/m2
03:14 14.5 °C 5.6 °C 1016.8 hPa ENE 1.6 km/h 12.9 km/h 55.1% 0 mm 0 W/m2
03:19 14.4 °C 5.6 °C 1016.8 hPa ENE 0.6 km/h 12.9 km/h 55.4% 0 mm 0 W/m2
03:24 14.4 °C 5.4 °C 1016.8 hPa NE 2.6 km/h 12.9 km/h 54.7% 0 mm 0 W/m2
03:29 14.3 °C 5.2 °C 1016.8 hPa NE 4.3 km/h 14.5 km/h 54.5% 0 mm 0 W/m2
03:34 14.2 °C 5.4 °C 1017.2 hPa ENE 0.5 km/h 14.5 km/h 55.2% 0 mm 0 W/m2
03:39 14.2 °C 5.4 °C 1017.2 hPa NNE 1.1 km/h 12.9 km/h 55.7% 0 mm 0 W/m2
03:44 14.1 °C 5.2 °C 1017.2 hPa NE 2.6 km/h 16.1 km/h 55% 0 mm 0 W/m2
03:49 14.1 °C 5.2 °C 1017.2 hPa NE 0.8 km/h 16.1 km/h 55% 0 mm 0 W/m2
03:54 14 °C 5.2 °C 1017.5 hPa NE 1.3 km/h 16.1 km/h 55.2% 0 mm 0 W/m2
03:59 13.9 °C 5 °C 1017.5 hPa ENE 1.9 km/h 16.1 km/h 54.9% 0 mm 0 W/m2
04:09 13.8 °C 4.6 °C 1017.5 hPa North 1.6 km/h 11.3 km/h 53.5% 0 mm 0 W/m2
04:14 13.7 °C 4.6 °C 1017.5 hPa East 1.1 km/h 11.3 km/h 54% 0 mm 0 W/m2
04:19 13.7 °C 4.7 °C 1017.5 hPa ENE 0.5 km/h 11.3 km/h 54.4% 0 mm 0 W/m2
04:24 13.7 °C 4.6 °C 1017.5 hPa ENE 1.3 km/h 11.3 km/h 54.1% 0 mm 0 W/m2
04:29 13.6 °C 4.5 °C 1017.5 hPa ENE 1 km/h 11.3 km/h 54% 0 mm 0 W/m2
04:34 13.6 °C 4.7 °C 1017.5 hPa NNE 0.8 km/h 11.3 km/h 55% 0 mm 0 W/m2
04:39 13.5 °C 4.6 °C 1017.5 hPa ENE 1.4 km/h 9.7 km/h 54.6% 0 mm 0 W/m2
04:44 13.5 °C 4.6 °C 1017.5 hPa East 0.2 km/h 9.7 km/h 54.7% 0 mm 0 W/m2
04:49 13.4 °C 4.6 °C 1017.8 hPa ENE 0.6 km/h 9.7 km/h 55% 0 mm 0 W/m2
04:54 13.3 °C 4.4 °C 1017.8 hPa ENE 0.2 km/h 9.7 km/h 54.8% 0 mm 0 W/m2
04:59 13.3 °C 4.4 °C 1017.8 hPa NE 0.3 km/h 12.9 km/h 55% 0 mm 0 W/m2
05:04 13.2 °C 4.4 °C 1017.8 hPa NNW 1.3 km/h 12.9 km/h 55.3% 0 mm 0 W/m2
05:09 13.1 °C 4.4 °C 1017.8 hPa NNE 0.3 km/h 11.3 km/h 55.3% 0 mm 0 W/m2
05:14 13.1 °C 4.3 °C 1017.8 hPa NE 1 km/h 11.3 km/h 55.3% 0 mm 0 W/m2
05:19 12.9 °C 4.2 °C 1017.8 hPa NE 1 km/h 11.3 km/h 55.5% 0 mm 0 W/m2
05:24 12.8 °C 4.3 °C 1018.2 hPa NNE 0.3 km/h 11.3 km/h 56.1% 0 mm 0 W/m2
05:29 12.7 °C 4.2 °C 1018.2 hPa NNW 0.3 km/h 11.3 km/h 56.2% 0 mm 0 W/m2
05:34 12.6 °C 4.1 °C 1018.2 hPa North 0.2 km/h 11.3 km/h 56.3% 0 mm 5 W/m2
05:39 12.5 °C 4.1 °C 1018.2 hPa Calm   4.8 km/h 56.4% 0 mm 12 W/m2
05:44 12.4 °C 4.1 °C 1018.2 hPa NNE 0.2 km/h 4.8 km/h 57% 0 mm 16 W/m2
05:49 12.3 °C 4.1 °C 1018.2 hPa Calm   4.8 km/h 57% 0 mm 16 W/m2
05:54 12.3 °C 4 °C 1018.2 hPa Calm   4.8 km/h 57% 0 mm 19 W/m2
05:59 12.2 °C 4 °C 1018.2 hPa East 0.3 km/h 8 km/h 57.3% 0 mm 21 W/m2
06:04 12.2 °C 3.9 °C 1018.5 hPa NE 0.8 km/h 8 km/h 57.1% 0 mm 21 W/m2
06:09 12.2 °C 4.1 °C 1018.5 hPa NE 0.2 km/h 4.8 km/h 57.9% 0 mm 23 W/m2
06:14 12.1 °C 4 °C 1018.5 hPa NE 0.2 km/h 4.8 km/h 57.5% 0 mm 25 W/m2
06:19 12.1 °C 4.1 °C 1018.5 hPa NE 1.3 km/h 11.3 km/h 57.8% 0 mm 32 W/m2
06:24 12.1 °C 3.8 °C 1018.8 hPa NE 1.6 km/h 12.9 km/h 57% 0 mm 53 W/m2
06:29 12.2 °C 4.1 °C 1018.8 hPa NNE 0.3 km/h 12.9 km/h 57.8% 0 mm 65 W/m2
06:34 12.2 °C 4 °C 1018.8 hPa ENE 0.6 km/h 12.9 km/h 57.2% 0 mm 62 W/m2
06:39 12.3 °C 4.1 °C 1018.8 hPa East 1.1 km/h 14.5 km/h 57.2% 0 mm 63 W/m2
06:44 12.3 °C 3.9 °C 1018.8 hPa East 0.8 km/h 14.5 km/h 56.7% 0 mm 67 W/m2
06:49 12.2 °C 4 °C 1018.8 hPa East 1 km/h 14.5 km/h 57.1% 0 mm 60 W/m2
06:54 12.2 °C 4 °C 1019.2 hPa ENE 0.5 km/h 14.5 km/h 57.2% 0 mm 49 W/m2
06:59 12.2 °C 4.1 °C 1019.2 hPa ESE 0.3 km/h 14.5 km/h 57.8% 0 mm 49 W/m2
07:04 12.2 °C 4.1 °C 1019.2 hPa East 0.5 km/h 14.5 km/h 57.5% 0 mm 60 W/m2
07:09 12.1 °C 3.9 °C 1018.8 hPa NE 2.4 km/h 9.7 km/h 57.3% 0 mm 125 W/m2
07:14 12.2 °C 4.4 °C 1018.8 hPa ENE 0.8 km/h 11.3 km/h 59% 0 mm 156 W/m2
07:19 12.5 °C 4.4 °C 1018.5 hPa ENE 1.4 km/h 11.3 km/h 57.9% 0 mm 193 W/m2
07:24 12.7 °C 4.4 °C 1018.5 hPa ENE 1.3 km/h 11.3 km/h 57.3% 0 mm 77 W/m2
07:29 12.7 °C 4.7 °C 1018.8 hPa ENE 0.3 km/h 11.3 km/h 58.1% 0 mm 132 W/m2
07:34 12.8 °C 4.9 °C 1019.2 hPa East 0.8 km/h 11.3 km/h 58.8% 0 mm 367 W/m2
07:39 13.3 °C 5.4 °C 1019.2 hPa North 0.3 km/h 8 km/h 59.1% 0 mm 367 W/m2
07:44 13.8 °C 5.3 °C 1019.2 hPa ENE 0.5 km/h 8 km/h 56.4% 0 mm 223 W/m2
07:49 14.1 °C 5.3 °C 1019.2 hPa NNE 0.2 km/h 8 km/h 55.3% 0 mm 427 W/m2
07:54 14.4 °C 5.5 °C 1019.2 hPa NNE 0.5 km/h 8 km/h 54.9% 0 mm 418 W/m2
07:59 14.7 °C 5.1 °C 1019.2 hPa East 0.2 km/h 8 km/h 52.8% 0 mm 515 W/m2
08:00 14.7 °C 5.4 °C 1019.2 hPa Calm   8 km/h 54% 0 mm 515 W/m2
08:09 14.7 °C 5.1 °C 1019.5 hPa ENE 1 km/h 4.8 km/h 52.5% 0 mm 302 W/m2
08:14 14.7 °C 5.2 °C 1019.5 hPa NNE 1.1 km/h 6.4 km/h 53.1% 0 mm 330 W/m2
08:19 14.6 °C 5.4 °C 1019.5 hPa NE 0.5 km/h 6.4 km/h 53.9% 0 mm 276 W/m2
08:24 14.5 °C 5.1 °C 1019.5 hPa NE 1.4 km/h 9.7 km/h 53.3% 0 mm 295 W/m2
08:29 14.5 °C 5.1 °C 1019.5 hPa NE 0.8 km/h 9.7 km/h 53.4% 0 mm 388 W/m2
08:34 14.4 °C 4.9 °C 1019.5 hPa NE 1.1 km/h 9.7 km/h 52.7% 0 mm 476 W/m2
08:39 14.4 °C 5.3 °C 1019.5 hPa NNW 2.1 km/h 9.7 km/h 54.4% 0 mm 308 W/m2
08:44 14.6 °C 4.8 °C 1019.5 hPa ENE 3.5 km/h 16.1 km/h 51.8% 0 mm 292 W/m2
08:49 14.6 °C 4.6 °C 1019.5 hPa NNE 1.3 km/h 16.1 km/h 51.1% 0 mm 295 W/m2
08:54 14.7 °C 4.6 °C 1019.5 hPa NNE 0.6 km/h 16.1 km/h 51% 0 mm 318 W/m2
08:59 14.8 °C 4.7 °C 1019.5 hPa NNW 3.2 km/h 22.5 km/h 51% 0 mm 868 W/m2
09:04 15.2 °C 5.6 °C 1019.5 hPa NW 1.4 km/h 22.5 km/h 52.8% 0 mm 868 W/m2
09:09 15.6 °C 5 °C 1019.5 hPa NNE 4 km/h 11.3 km/h 49.1% 0 mm 313 W/m2
09:14 15.9 °C 5.3 °C 1019.5 hPa North 2.4 km/h 16.1 km/h 49.4% 0 mm 914 W/m2
09:19 16 °C 5.5 °C 1019.5 hPa NNE 2.6 km/h 16.1 km/h 49.6% 0 mm 914 W/m2
09:24 16.3 °C 5.6 °C 1019.5 hPa North 2.4 km/h 16.1 km/h 49.2% 0 mm 786 W/m2
09:29 16.6 °C 5.4 °C 1019.5 hPa North 3.4 km/h 19.3 km/h 47.9% 0 mm 786 W/m2
09:34 16.6 °C 5.2 °C 1019.5 hPa North 1.6 km/h 19.3 km/h 46.6% 0 mm 476 W/m2
09:39 16.5 °C 5.1 °C 1019.2 hPa NE 3.1 km/h 17.7 km/h 46.7% 0 mm 557 W/m2
09:44 16.5 °C 5.7 °C 1019.2 hPa North 1.9 km/h 17.7 km/h 48.6% 0 mm 557 W/m2
09:49 16.7 °C 5.7 °C 1019.2 hPa North 4.5 km/h 17.7 km/h 48.3% 0 mm 795 W/m2
09:54 16.7 °C 5.4 °C 1019.2 hPa NNE 2.3 km/h 17.7 km/h 47.3% 0 mm 958 W/m2
09:59 16.7 °C 5.8 °C 1019.2 hPa NNE 3.5 km/h 17.7 km/h 48.3% 0 mm 831 W/m2
10:04 16.7 °C 5.7 °C 1019.2 hPa NNE 0.8 km/h 17.7 km/h 48.1% 0 mm 570 W/m2
10:09 16.7 °C 6.1 °C 1019.2 hPa NNW 1.9 km/h 11.3 km/h 49.3% 0 mm 589 W/m2
10:14 16.8 °C 5.7 °C 1019.2 hPa ENE 2.7 km/h 11.3 km/h 47.7% 0 mm 555 W/m2
10:19 16.6 °C 5.4 °C 1018.8 hPa NE 0.6 km/h 11.3 km/h 47.9% 0 mm 548 W/m2
10:24 16.7 °C 6 °C 1018.8 hPa North 1.4 km/h 16.1 km/h 49.4% 0 mm 548 W/m2
10:29 17.2 °C 6.4 °C 1018.8 hPa NW 1.8 km/h 16.1 km/h 49.4% 0 mm 687 W/m2
10:30 17.4 °C 6.6 °C 1018.8 hPa NNE 1.6 km/h 17.7 km/h 49% 0 mm 525 W/m2
11:00 16.7 °C 4.7 °C 1018.5 hPa NE 3.2 km/h 16.1 km/h 45% 0 mm 447 W/m2
11:30 16.8 °C 5.4 °C 1018.2 hPa ENE 1.6 km/h 16.1 km/h 47% 0 mm 511 W/m2
12:04 16.5 °C 6.5 °C 1017.8 hPa NW 4 km/h 8 km/h 51.6% 0 mm 223 W/m2
12:09 16.4 °C 6.4 °C 1018.2 hPa NW 2.3 km/h 11.3 km/h 51.5% 0 mm 279 W/m2
12:14 16.4 °C 6.4 °C 1017.8 hPa NW 1.6 km/h 11.3 km/h 51.7% 0 mm 294 W/m2
12:19 16.4 °C 6.1 °C 1017.8 hPa NW 2.6 km/h 16.1 km/h 50.7% 0 mm 283 W/m2
12:24 16.3 °C 6.3 °C 1017.8 hPa NW 1.3 km/h 16.1 km/h 51.5% 0 mm 295 W/m2
12:29 16.3 °C 6.4 °C 1017.8 hPa WNW 1.4 km/h 16.1 km/h 51.7% 0 mm 306 W/m2
12:34 16.3 °C 6.2 °C 1017.8 hPa ENE 1 km/h 16.1 km/h 51.4% 0 mm 378 W/m2
12:39 16.2 °C 6.4 °C 1017.5 hPa North 0.8 km/h 6.4 km/h 52.2% 0 mm 378 W/m2
12:44 16.2 °C 6.1 °C 1017.5 hPa ENE 0.8 km/h 6.4 km/h 51.2% 0 mm 531 W/m2
12:49 16.2 °C 6.6 °C 1017.5 hPa NNE 2.3 km/h 14.5 km/h 53.1% 0 mm 531 W/m2
12:54 16.4 °C 6.7 °C 1017.2 hPa NE 2.4 km/h 14.5 km/h 52.6% 0 mm 592 W/m2
12:59 16.7 °C 6.8 °C 1017.2 hPa ENE 1.4 km/h 14.5 km/h 52.1% 0 mm 717 W/m2
13:04 16.9 °C 7.2 °C 1017.2 hPa NNE 4 km/h 14.5 km/h 52.7% 0 mm 684 W/m2
13:09 17.2 °C 7.2 °C 1016.8 hPa North 1.8 km/h 14.5 km/h 52% 0 mm 527 W/m2
13:14 17.4 °C 6.8 °C 1016.8 hPa ENE 2.9 km/h 14.5 km/h 49.7% 0 mm 417 W/m2
13:19 17.4 °C 7.1 °C 1016.8 hPa North 1.8 km/h 14.5 km/h 50.7% 0 mm 371 W/m2
13:24 17.4 °C 7.3 °C 1016.8 hPa NNW 0.3 km/h 14.5 km/h 51.2% 0 mm 369 W/m2
13:29 17.4 °C 7 °C 1016.8 hPa NNE 0.8 km/h 14.5 km/h 50.5% 0 mm 464 W/m2
13:34 17.4 °C 7.3 °C 1016.8 hPa NNW 2.6 km/h 14.5 km/h 51.4% 0 mm 512 W/m2
13:39 17.6 °C 7.2 °C 1016.8 hPa NNW 5.6 km/h 12.9 km/h 50.5% 0 mm 563 W/m2
13:44 17.7 °C 7.5 °C 1016.8 hPa NNW 3.5 km/h 16.1 km/h 51.2% 0 mm 494 W/m2
13:49 17.8 °C 7.1 °C 1016.8 hPa NE 2.7 km/h 16.1 km/h 49.5% 0 mm 499 W/m2
13:54 17.8 °C 7 °C 1016.8 hPa North 1.6 km/h 16.1 km/h 49.1% 0 mm 536 W/m2
13:59 17.8 °C 6.9 °C 1016.5 hPa North 4 km/h 16.1 km/h 49.1% 0 mm 480 W/m2
14:04 17.7 °C 6.9 °C 1016.5 hPa ENE 2.4 km/h 16.1 km/h 49.4% 0 mm 508 W/m2
14:09 17.6 °C 6.9 °C 1016.8 hPa NNW 2.4 km/h 11.3 km/h 49.7% 0 mm 294 W/m2
14:14 17.4 °C 6.7 °C 1016.5 hPa North 1 km/h 11.3 km/h 49.4% 0 mm 320 W/m2
14:19 17.3 °C 6.8 °C 1016.5 hPa NNW 2.9 km/h 11.3 km/h 50.1% 0 mm 512 W/m2
14:24 17.4 °C 6.9 °C 1016.5 hPa NNW 4 km/h 19.3 km/h 50.2% 0 mm 533 W/m2
14:29 17.6 °C 7 °C 1016.5 hPa North 1 km/h 19.3 km/h 49.9% 0 mm 483 W/m2
14:34 17.8 °C 7.3 °C 1016.5 hPa NW 2.6 km/h 19.3 km/h 50.2% 0 mm 410 W/m2
14:39 17.8 °C 7.4 °C 1016.1 hPa North 1.6 km/h 9.7 km/h 50.6% 0 mm 578 W/m2
14:44 17.8 °C 6.8 °C 1016.1 hPa North 3.2 km/h 14.5 km/h 48.4% 0 mm 548 W/m2
14:49 17.8 °C 6.9 °C 1016.1 hPa SSW 3.7 km/h 16.1 km/h 48.8% 0 mm 489 W/m2
14:54 17.8 °C 6.7 °C 1016.1 hPa ENE 4.7 km/h 16.1 km/h 48% 0 mm 325 W/m2
14:59 17.7 °C 6.8 °C 1015.8 hPa ENE 0.5 km/h 16.1 km/h 49% 0 mm 320 W/m2
15:04 17.6 °C 7.2 °C 1015.8 hPa NE 4 km/h 17.7 km/h 50.5% 0 mm 285 W/m2
15:09 17.6 °C 6.9 °C 1015.8 hPa NE 1.3 km/h 17.7 km/h 49.7% 0 mm 301 W/m2
15:14 17.6 °C 6.9 °C 1015.8 hPa East 3.7 km/h 17.7 km/h 49.4% 0 mm 257 W/m2
15:19 17.6 °C 7.1 °C 1015.5 hPa ENE 1.3 km/h 17.7 km/h 50.3% 0 mm 202 W/m2
15:24 17.6 °C 6.7 °C 1015.5 hPa East 1.9 km/h 17.7 km/h 49.1% 0 mm 269 W/m2
15:29 17.5 °C 6.9 °C 1015.1 hPa ENE 3.2 km/h 17.7 km/h 49.7% 0 mm 279 W/m2
15:34 17.6 °C 7.1 °C 1015.1 hPa ENE 2.4 km/h 17.7 km/h 50% 0 mm 218 W/m2
15:39 17.6 °C 6.7 °C 1015.1 hPa NE 2.6 km/h 17.7 km/h 48.8% 0 mm 128 W/m2
15:44 17.4 °C 6.8 °C 1015.1 hPa NE 2.1 km/h 17.7 km/h 49.6% 0 mm 267 W/m2
15:49 17.3 °C 6.9 °C 1015.1 hPa NE 2.1 km/h 17.7 km/h 50.4% 0 mm 272 W/m2
15:54 17.3 °C 6.9 °C 1015.1 hPa ENE 1.8 km/h 17.7 km/h 50.3% 0 mm 272 W/m2
15:59 17.3 °C 6.8 °C 1014.8 hPa NE 5.8 km/h 17.7 km/h 50% 0 mm 255 W/m2
16:04 17.3 °C 6.5 °C 1014.8 hPa ENE 0.6 km/h 3.2 km/h 49% 0 mm 185 W/m2
16:09 17.3 °C 6.8 °C 1014.8 hPa ENE 3.5 km/h 14.5 km/h 50.1% 0 mm 200 W/m2
16:14 17.3 °C 6.6 °C 1014.8 hPa NE 4.7 km/h 19.3 km/h 49.4% 0 mm 179 W/m2
16:19 17.3 °C 6.6 °C 1014.8 hPa ENE 4.5 km/h 19.3 km/h 49.3% 0 mm 130 W/m2
16:24 17.2 °C 6.5 °C 1014.8 hPa ENE 3.2 km/h 19.3 km/h 49.4% 0 mm 98 W/m2
16:29 17.1 °C 6.5 °C 1014.8 hPa NE 5 km/h 19.3 km/h 49.6% 0 mm 90 W/m2
16:34 16.9 °C 6.4 °C 1014.4 hPa ENE 4.2 km/h 19.3 km/h 50% 0 mm 60 W/m2
16:39 16.8 °C 6.9 °C 1014.4 hPa East 1.9 km/h 14.5 km/h 52.1% 0 mm 56 W/m2
16:44 16.7 °C 7.1 °C 1014.4 hPa ENE 2.4 km/h 16.1 km/h 53.3% 0 mm 60 W/m2
16:49 16.6 °C 7.2 °C 1014.4 hPa NNE 2.9 km/h 16.1 km/h 53.8% 0 mm 84 W/m2
16:54 16.4 °C 7.3 °C 1014.4 hPa ENE 3.5 km/h 16.1 km/h 54.8% 0 mm 72 W/m2
16:59 16.3 °C 7.3 °C 1014.4 hPa ENE 0.2 km/h 16.1 km/h 55.4% 0 mm 65 W/m2
17:04 16.1 °C 7.8 °C 1014.4 hPa ENE 2.1 km/h 16.1 km/h 57.6% 0 mm 46 W/m2
17:09 16 °C 8.7 °C 1014.8 hPa NNW 0.8 km/h 11.3 km/h 62.1% 0 mm 28 W/m2
17:14 15.8 °C 8.8 °C 1014.8 hPa North 0.3 km/h 11.3 km/h 63.1% 0 mm 21 W/m2
17:19 15.6 °C 9.2 °C 1015.1 hPa Calm   11.3 km/h 65.5% 0 mm 19 W/m2
17:24 15.4 °C 9.6 °C 1015.1 hPa Calm   11.3 km/h 68.1% 0.25 mm 14 W/m2
17:29 15.2 °C 10.3 °C 1015.5 hPa Calm   11.3 km/h 72.3% 0.25 mm 12 W/m2
17:34 14.9 °C 10.4 °C 1015.5 hPa NE 0.2 km/h 11.3 km/h 74.7% 0.51 mm 18 W/m2
17:39 14.6 °C 10.1 °C 1015.5 hPa Calm   1.6 km/h 74.6% 0.51 mm 28 W/m2
17:44 14.1 °C 9.6 °C 1015.1 hPa Calm   4.8 km/h 74.3% 0.51 mm 30 W/m2
17:49 13.7 °C 9.5 °C 1015.1 hPa East 0.3 km/h 8 km/h 76% 0.76 mm 32 W/m2
17:54 13.3 °C 9.5 °C 1015.1 hPa Calm   8 km/h 77.5% 0.76 mm 37 W/m2
17:59 13.1 °C 9.7 °C 1015.5 hPa Calm   8 km/h 79.5% 0.76 mm 30 W/m2
18:04 12.9 °C 9.7 °C 1015.5 hPa East 0.2 km/h 8 km/h 80.6% 0.76 mm 28 W/m2
18:09 12.8 °C 9.8 °C 1015.5 hPa East 0.2 km/h 4.8 km/h 81.9% 1.02 mm 28 W/m2
18:14 12.7 °C 10 °C 1015.5 hPa ENE 0.3 km/h 4.8 km/h 83.5% 1.02 mm 14 W/m2
18:19 12.6 °C 10.2 °C 1015.5 hPa Calm   4.8 km/h 85% 1.02 mm 14 W/m2
18:24 12.5 °C 10.1 °C 1015.5 hPa Calm   4.8 km/h 85% 1.02 mm 12 W/m2
18:29 12.3 °C 9.8 °C 1015.5 hPa ENE 0.5 km/h 4.8 km/h 84.5% 1.27 mm 12 W/m2
18:34 12.1 °C 9.6 °C 1015.5 hPa Calm   4.8 km/h 84.9% 1.27 mm 12 W/m2
18:39 11.9 °C 9.6 °C 1015.1 hPa East 0.2 km/h 4.8 km/h 85.5% 1.02 mm 12 W/m2
18:44 11.7 °C 9.3 °C 1015.5 hPa Calm   4.8 km/h 85.4% 1.02 mm 12 W/m2
18:49 11.6 °C 9.3 °C 1015.1 hPa ENE 1 km/h 8 km/h 86% 1.02 mm 14 W/m2
18:54 11.4 °C 9.3 °C 1015.5 hPa Calm   8 km/h 86.7% 1.27 mm 12 W/m2
18:59 11.4 °C 9.3 °C 1015.5 hPa NNE 0.2 km/h 8 km/h 87% 1.27 mm 5 W/m2
19:04 11.3 °C 9.4 °C 1015.5 hPa Calm   8 km/h 88% 1.27 mm 7 W/m2
19:09 11.3 °C 9.4 °C 1015.5 hPa Calm     88% 0.76 mm 7 W/m2
19:14 11.3 °C 9.4 °C 1015.5 hPa NNE 0.2 km/h 3.2 km/h 88.6% 0.76 mm 0 W/m2
19:19 11.3 °C 9.5 °C 1015.5 hPa Calm   3.2 km/h 89% 0.76 mm 0 W/m2
19:24 11.2 °C 9.6 °C 1015.5 hPa Calm   3.2 km/h 89.7% 1.02 mm 0 W/m2
19:29 11.2 °C 9.6 °C 1015.8 hPa Calm   3.2 km/h 90% 1.02 mm 0 W/m2
19:34 11.1 °C 9.5 °C 1015.8 hPa Calm   3.2 km/h 90% 1.02 mm 0 W/m2
19:39 11 °C 9.4 °C 1015.8 hPa NNW 1 km/h 9.7 km/h 90% 0.51 mm 0 W/m2
19:44 10.8 °C 9.3 °C 1015.5 hPa Calm   9.7 km/h 90% 0.51 mm 0 W/m2
19:49 10.7 °C 9.1 °C 1015.5 hPa NW 2.3 km/h 11.3 km/h 90% 0.51 mm 0 W/m2
19:54 10.6 °C 9 °C 1015.8 hPa NNW 3.4 km/h 11.3 km/h 90% 0.76 mm 0 W/m2
19:59 10.4 °C 8.8 °C 1015.5 hPa NNW 2.4 km/h 11.3 km/h 90% 0.76 mm 0 W/m2
20:04 10.2 °C 8.7 °C 1015.1 hPa Calm     90% 0.76 mm 0 W/m2
20:09 10.2 °C 8.7 °C 1015.1 hPa NE 1.9 km/h 9.7 km/h 90.8% 0.76 mm 0 W/m2
20:14 10.1 °C 8.6 °C 1015.1 hPa North 1.8 km/h 9.7 km/h 91% 0.76 mm 0 W/m2
20:19 10 °C 8.7 °C 1015.1 hPa NNW 0.5 km/h 9.7 km/h 91.6% 0.76 mm 0 W/m2
20:24 9.9 °C 8.4 °C 1015.1 hPa ENE 1.6 km/h 9.7 km/h 91% 1.02 mm 0 W/m2
20:29 9.8 °C 8.5 °C 1015.1 hPa ENE 1.9 km/h 9.7 km/h 91.7% 1.02 mm 0 W/m2
20:34 9.7 °C 8.4 °C 1015.1 hPa NE 1.9 km/h 9.7 km/h 92% 1.02 mm 0 W/m2
20:39 9.6 °C 8.4 °C 1015.1 hPa ENE 2.3 km/h 9.7 km/h 92% 0.51 mm 0 W/m2
20:44 9.6 °C 8.3 °C 1015.5 hPa ENE 4.2 km/h 11.3 km/h 92% 0.51 mm 0 W/m2
20:49 9.6 °C 8.4 °C 1015.5 hPa NNE 1.3 km/h 11.3 km/h 92.8% 0.51 mm 0 W/m2
20:54 9.6 °C 8.5 °C 1015.1 hPa NNE 0.6 km/h 11.3 km/h 93% 0.76 mm 0 W/m2
20:59 9.6 °C 8.5 °C 1015.5 hPa NE 2.3 km/h 11.3 km/h 93% 0.76 mm 0 W/m2
21:04 9.6 °C 8.6 °C 1015.1 hPa ENE 5 km/h 14.5 km/h 93% 0.76 mm 0 W/m2
21:09 9.7 °C 8.6 °C 1015.5 hPa ENE 4.7 km/h 16.1 km/h 93% 0.25 mm 0 W/m2
21:14 9.7 °C 8.7 °C 1015.5 hPa ENE 6.3 km/h 19.3 km/h 93.2% 0.25 mm 0 W/m2
21:19 9.8 °C 8.8 °C 1015.5 hPa ENE 5.6 km/h 19.3 km/h 93.8% 0.25 mm 0 W/m2
21:24 9.9 °C 9 °C 1015.8 hPa ENE 5.1 km/h 19.3 km/h 94% 0.51 mm 0 W/m2
21:29 9.9 °C 9.1 °C 1015.5 hPa ENE 6.1 km/h 19.3 km/h 94% 0.51 mm 0 W/m2
21:34 10 °C 9.1 °C 1015.5 hPa ENE 6 km/h 19.3 km/h 94% 0.51 mm 0 W/m2
21:39 10.1 °C 9.1 °C 1015.8 hPa East 3.4 km/h 19.3 km/h 94% 0.51 mm 0 W/m2
21:44 10.1 °C 9.1 °C 1016.1 hPa ENE 1.8 km/h 19.3 km/h 94% 0.76 mm 0 W/m2
21:49 10.1 °C 9.1 °C 1015.8 hPa East 5.3 km/h 19.3 km/h 94% 0.76 mm 0 W/m2
21:54 10 °C 9.1 °C 1015.5 hPa East 6.3 km/h 19.3 km/h 94% 0.76 mm 0 W/m2
21:59 10 °C 9.1 °C 1015.1 hPa East 8.7 km/h 19.3 km/h 94% 1.02 mm 0 W/m2
22:04 9.9 °C 9.1 °C 1014.8 hPa ENE 6.8 km/h 19.3 km/h 94% 1.02 mm 0 W/m2
22:09 9.9 °C 9.1 °C 1015.1 hPa NE 2.6 km/h 17.7 km/h 94% 1.02 mm 0 W/m2
22:14 9.9 °C 9.1 °C 1015.1 hPa ENE 7.7 km/h 17.7 km/h 94% 1.27 mm 0 W/m2
22:19 10 °C 9.1 °C 1014.8 hPa NE 4.7 km/h 17.7 km/h 94% 1.27 mm 0 W/m2
22:24 9.9 °C 9.1 °C 1015.5 hPa ENE 4.5 km/h 17.7 km/h 94% 1.52 mm 0 W/m2
22:29 9.9 °C 9 °C 1015.8 hPa NE 7.2 km/h 20.9 km/h 94% 1.52 mm 0 W/m2
22:34 9.8 °C 8.9 °C 1015.8 hPa ENE 8.4 km/h 22.5 km/h 94% 1.52 mm 0 W/m2
22:39 9.7 °C 8.8 °C 1015.8 hPa ENE 6.9 km/h 22.5 km/h 94% 1.52 mm 0 W/m2
22:44 9.7 °C 8.8 °C 1016.1 hPa NE 2.1 km/h 22.5 km/h 94% 1.78 mm 0 W/m2
22:49 9.7 °C 8.8 °C 1016.1 hPa ENE 4.2 km/h 22.5 km/h 94% 2.03 mm 0 W/m2
22:54 9.7 °C 8.8 °C 1016.1 hPa ENE 2.4 km/h 22.5 km/h 94% 2.29 mm 0 W/m2
22:59 9.7 °C 8.8 °C 1015.8 hPa ENE 3.7 km/h 22.5 km/h 94% 2.54 mm 0 W/m2
23:04 9.7 °C 8.7 °C 1015.5 hPa ENE 6.6 km/h 22.5 km/h 94% 2.54 mm 0 W/m2
23:09 9.4 °C 8.6 °C 1015.5 hPa ENE 2.9 km/h 17.7 km/h 94% 2.29 mm 0 W/m2
23:14 9.3 °C 8.4 °C 1015.5 hPa NE 5.5 km/h 20.9 km/h 94% 2.79 mm 0 W/m2
23:19 9.3 °C 8.4 °C 1015.8 hPa NE 3.7 km/h 24.1 km/h 94% 3.05 mm 0 W/m2
23:24 9.3 °C 8.3 °C 1015.8 hPa ENE 3.9 km/h 24.1 km/h 94% 3.3 mm 0 W/m2
23:29 9.2 °C 8.3 °C 1015.1 hPa ENE 6.9 km/h 24.1 km/h 94% 3.81 mm 0 W/m2
23:34 9.2 °C 8.2 °C 1015.5 hPa NE 4.7 km/h 24.1 km/h 94% 3.81 mm 0 W/m2
23:39 9.1 °C 8.2 °C 1015.5 hPa ENE 2.7 km/h 14.5 km/h 94% 3.56 mm 0 W/m2
23:44 9 °C 8.1 °C 1015.5 hPa NE 5.5 km/h 16.1 km/h 94% 4.06 mm 0 W/m2
23:49 8.9 °C 8.1 °C 1015.1 hPa ENE 4.8 km/h 16.1 km/h 94% 4.32 mm 0 W/m2
23:54 8.9 °C 8 °C 1015.1 hPa ENE 6.1 km/h 24.1 km/h 94% 4.83 mm 0 W/m2
23:59 8.8 °C 7.9 °C 1014.8 hPa ENE 5.1 km/h 24.1 km/h 94% 5.08 mm 0 W/m2
Hartford County Weather
Compliments of Weather Underground - 4 mb